Terminal Aerodrome Forecast
Issued by NWS

Home | Current Version | Previous Version | Text Only | Print | Product List | Glossary On
Versions: 1 2 3 4 5 6 7 8 9 10 11 12 13 14
000
FTUS45 KABQ 211100
TAFLVS
TAF
KLVS 211124Z 2112/2212 34007KT P6SM SKC
     FM211900 19011G19KT P6SM SCT120
     FM220200 20007KT P6SM SCT090 SCT200
     FM221000 18007KT P6SM BKN100=

USA.gov is the U.S. government's official web portal to all federal, state and local government web resources and services.